createdAt,value
2023-05-08T00:01:16.151Z,18.660522627327374
2023-05-08T00:04:16.245Z,18.64253720971501
2023-05-08T00:07:16.312Z,18.612347409594896
2023-05-08T00:11:16.247Z,18.584084627097127
2023-05-08T00:14:16.690Z,18.575091925421383
2023-05-08T00:17:16.513Z,18.548756161355413
2023-05-08T00:21:16.068Z,18.497369326651096
2023-05-08T00:24:16.772Z,18.496726991401466
2023-05-08T00:27:16.401Z,18.488376633570077
2023-05-08T00:31:16.344Z,18.458186884745466
2023-05-08T00:34:16.202Z,18.441486176945272
2023-05-08T00:37:16.472Z,18.438916837556555
2023-05-08T00:41:16.361Z,18.41771979037585
2023-05-08T00:44:16.891Z,18.404230762930183
2023-05-08T00:47:16.593Z,18.369544701564244
2023-05-08T00:51:16.660Z,18.34385133132391
2023-05-08T00:54:17.328Z,18.32265430635307
2023-05-08T00:57:17.671Z,18.32136963833218
2023-05-08T01:01:16.790Z,18.280902604985112
2023-05-08T01:04:20.250Z,18.28218727243302
2023-05-08T01:07:17.190Z,18.291179945077694
2023-05-08T01:11:24.057Z,18.24364725690839
2023-05-08T01:14:20.204Z,18.253924592780912
2023-05-08T01:17:27.121Z,18.22630425526331
2023-05-08T01:21:25.226Z,18.19354526120087
2023-05-08T01:24:49.023Z,18.194187594304093
2023-05-08T01:31:23.302Z,18.149224288060577
2023-05-08T01:34:22.765Z,18.135735300532634
2023-05-08T01:37:21.027Z,18.13766229862813
2023-05-08T01:41:23.243Z,18.08691802909825
2023-05-08T01:44:19.181Z,18.057370745990283
2023-05-08T01:47:19.637Z,18.036173787949156
2023-05-08T01:51:20.810Z,18.004699526054264
2023-05-08T01:54:24.835Z,17.99827620864171
2023-05-08T01:57:18.993Z,17.97129828047482
2023-05-08T02:01:19.602Z,17.94817434843071
2023-05-08T02:04:17.104Z,17.934685390793312
2023-05-08T02:07:17.757Z,17.921196435161345
2023-05-08T02:11:17.264Z,17.90321116410496
2023-05-08T02:14:19.412Z,17.88843755126145
2023-05-08T02:17:17.044Z,17.873663940823555
2023-05-08T02:21:17.831Z,17.853751687083058
2023-05-08T02:24:16.930Z,17.85246702570148
2023-05-08T02:27:17.479Z,17.842832065919445
2023-05-08T02:31:17.302Z,17.826773801889793
2023-05-08T02:34:17.658Z,17.836408759966524
2023-05-08T02:37:18.834Z,17.823562149424923
2023-05-08T02:41:18.973Z,17.813284862301316
2023-05-08T02:44:17.666Z,17.786949319360794
2023-05-08T02:47:20.809Z,17.78116834754337
2023-05-08T02:51:24.344Z,17.768321744823425
2023-05-08T02:54:24.380Z,17.762540774192892
2023-05-08T02:57:23.717Z,17.74584019444046
2023-05-08T03:01:25.010Z,17.71051205509366
2023-05-08T03:04:24.525Z,17.716293022409083
2023-05-08T03:07:20.395Z,17.716293022409083
2023-05-08T03:11:20.145Z,17.698307791970727
2023-05-08T03:14:22.899Z,17.689957507621966
2023-05-08T03:17:20.442Z,17.677110917816844
2023-05-08T03:21:18.846Z,17.656556377912146
2023-05-08T03:24:18.933Z,17.6456367804818
2023-05-08T03:27:17.982Z,17.619943615241574
2023-05-08T03:31:17.997Z,17.57305360743421
2023-05-08T03:34:18.549Z,17.594250457277305
2023-05-08T03:37:16.545Z,17.55571073397332
2023-05-08T03:41:15.970Z,17.522951982036556
2023-05-08T03:44:17.846Z,17.521667325338875
2023-05-08T03:47:17.094Z,17.491477898179802
2023-05-08T03:51:15.619Z,17.466427104546256
2023-05-08T03:54:15.990Z,17.46450012070709
2023-05-08T03:57:16.108Z,17.425318124854037
2023-05-08T04:01:24.581Z,17.387420800700784
2023-05-08T04:04:19.988Z,17.34245789427114
2023-05-08T04:07:27.755Z,17.33667695077538
2023-05-08T04:11:25.402Z,17.298779663647657
2023-05-08T04:14:23.613Z,17.29685268336916
2023-05-08T04:17:27.277Z,17.270517290331554
2023-05-08T04:21:22.575Z,17.238400967704365
2023-05-08T04:24:18.549Z,17.212065591633383
2023-05-08T04:27:16.581Z,17.203715352036305
2023-05-08T04:31:17.070Z,17.169672075478683
2023-05-08T04:34:17.595Z,17.149117650534116
2023-05-08T04:37:25.071Z,17.13755578854916
2023-05-08T04:41:16.021Z,17.134344160481486
2023-05-08T04:44:16.396Z,17.122782300379185
2023-05-08T04:47:16.814Z,17.100300909953603
2023-05-08T04:51:15.900Z,17.094519981887423
2023-05-08T04:54:16.303Z,17.085527427849957
2023-05-08T04:57:16.351Z,17.082958126860103
2023-05-08T05:01:18.602Z,17.059192096153218
2023-05-08T05:04:16.435Z,16.99367496265777
2023-05-08T05:07:16.229Z,17.013587027637186
2023-05-08T05:11:15.625Z,16.989821015102006
2023-05-08T05:14:16.068Z,17.000740533601856
2023-05-08T05:17:16.220Z,16.980186146928826
2023-05-08T05:21:15.868Z,16.966055008792317
2023-05-08T05:24:16.583Z,16.971835928673045
2023-05-08T05:27:16.311Z,16.990463339683266
2023-05-08T05:31:15.729Z,16.967981982044968
2023-05-08T05:34:16.179Z,16.995601936497042
2023-05-08T05:37:16.191Z,16.99752891037724
2023-05-08T05:41:16.358Z,17.012302378151798
2023-05-08T05:44:17.040Z,17.043133970821508
2023-05-08T05:47:16.681Z,17.04827257061843
2023-05-08T05:51:16.252Z,17.060476746302538
2023-05-08T05:54:16.306Z,17.08231580162401
2023-05-08T05:57:16.599Z,17.112505092636276
2023-05-08T06:01:16.178Z,17.122782300379185
2023-05-08T06:04:16.526Z,17.170314401333236
2023-05-08T06:07:16.481Z,17.1966497652852
2023-05-08T06:11:16.483Z,17.21784652718925
2023-05-08T06:14:16.509Z,17.25510145405169
2023-05-08T06:17:17.599Z,17.278867536076813
2023-05-08T06:21:16.851Z,17.295568029872904
2023-05-08T06:24:16.739Z,17.323830410992468
2023-05-08T06:27:16.723Z,17.35980072696848
2023-05-08T06:31:16.039Z,17.384209163788274
2023-05-08T06:34:16.318Z,17.422106486600022
2023-05-08T06:37:16.468Z,17.456792185759696
2023-05-08T06:41:15.974Z,17.48955091380858
2023-05-08T06:44:16.431Z,17.545433477190453
2023-05-08T06:47:16.815Z,17.56663032058068
2023-05-08T06:51:15.892Z,17.601958403902607
2023-05-08T06:54:16.525Z,17.675826258936375
2023-05-08T06:57:16.289Z,17.731066607221965
2023-05-08T07:01:16.333Z,17.81778117527465
2023-05-08T07:04:16.616Z,17.906422819389263
2023-05-08T07:07:16.556Z,17.96744429139153
2023-05-08T07:11:16.281Z,18.036816119938248
2023-05-08T07:14:16.648Z,18.09783767963854
2023-05-08T07:17:16.961Z,18.185837264316888
2023-05-08T07:21:18.040Z,18.268055931506478
2023-05-08T07:24:17.074Z,18.37468337648543
2023-05-08T07:27:16.960Z,18.45754454977323
2023-05-08T07:31:16.573Z,18.497369326651096
2023-05-08T07:34:16.644Z,18.548756161355413
2023-05-08T07:37:16.736Z,18.636756183382477
2023-05-08T07:41:16.195Z,18.6875007604307
2023-05-08T07:44:16.683Z,18.727967975126468
2023-05-08T07:47:16.586Z,18.781281952199425
2023-05-08T07:51:16.050Z,18.798625059927964
2023-05-08T07:54:16.338Z,18.873136227145096
2023-05-08T07:57:16.419Z,18.91103417187842
2023-05-08T08:01:18.255Z,18.965632933646795
2023-05-08T08:04:16.399Z,19.018947050372663
2023-05-08T08:07:16.746Z,19.055560377593885
2023-05-08T08:11:16.313Z,19.058772073669026
2023-05-08T08:14:16.853Z,19.13713749313174
2023-05-08T08:17:16.801Z,19.13906451249577
2023-05-08T08:21:16.757Z,19.173750868046863
2023-05-08T08:24:16.341Z,19.23605787335873
2023-05-08T08:27:16.608Z,19.26367851826735
2023-05-08T08:31:16.527Z,19.28680278558759
2023-05-08T08:34:16.453Z,19.317635151182277
2023-05-08T08:37:16.512Z,19.35617562290945
2023-05-08T08:41:16.235Z,19.380584596804056
2023-05-08T08:44:16.918Z,19.40884762741198
2023-05-08T08:47:21.622Z,19.41719806995825
2023-05-08T08:51:24.999Z,19.442249402208198
2023-05-08T08:54:20.620Z,19.493636772059197
2023-05-08T08:57:18.576Z,19.5418124577267
2023-05-08T09:01:18.482Z,19.525111550465226
2023-05-08T09:04:17.078Z,19.547593541725746
2023-05-08T09:07:17.277Z,19.594484569995256
2023-05-08T09:11:16.180Z,19.566221481561662
2023-05-08T09:14:16.506Z,19.598980971239598
2023-05-08T09:17:16.485Z,19.589345825988858
2023-05-08T09:21:16.616Z,19.603477372706767
2023-05-08T09:24:16.816Z,19.622747667232762
2023-05-08T09:27:20.665Z,19.615681892098017
2023-05-08T09:31:16.219Z,19.613112519458173
2023-05-08T09:34:25.689Z,19.59191519795568
2023-05-08T09:37:16.804Z,19.561725081940768
2023-05-08T09:41:16.589Z,19.51162235838283
2023-05-08T09:44:16.891Z,19.505198934286547
2023-05-08T09:47:19.346Z,19.521899837882756
2023-05-08T09:51:16.168Z,19.495563798994773
2023-05-08T09:54:17.407Z,19.50776830387049
2023-05-08T09:57:17.163Z,19.482074611305233
2023-05-08T10:01:28.612Z,19.480789926867963
2023-05-08T10:04:16.995Z,19.493636772059197
2023-05-08T10:07:26.749Z,19.504556591901927
2023-05-08T10:11:17.961Z,19.478220558047997
2023-05-08T10:14:16.176Z,19.47629353148077
2023-05-08T10:17:24.115Z,19.430687248002595
2023-05-08T10:21:17.178Z,19.421694462416873
2023-05-08T10:24:18.349Z,19.45124218983119
2023-05-08T10:27:22.353Z,19.468585425621132
2023-05-08T10:31:17.612Z,19.475651189300788
2023-05-08T10:34:18.948Z,19.48014758465615
2023-05-08T10:37:17.033Z,19.51804578293386
2023-05-08T10:41:16.171Z,19.509695331106194
2023-05-08T10:44:17.633Z,19.559798053600026
2023-05-08T10:47:23.481Z,19.58228005345527
2023-05-08T10:51:25.854Z,19.584849425222
2023-05-08T10:54:25.901Z,19.618893608000143
2023-05-08T10:57:16.679Z,19.641375622498252
2023-05-08T11:01:16.468Z,19.602192686550552
2023-05-08T11:04:20.459Z,19.660645925073275
2023-05-08T11:07:16.419Z,19.680558575367105
2023-05-08T11:11:25.334Z,19.74222358464358
2023-05-08T11:14:17.471Z,19.778194859408906
2023-05-08T11:17:22.968Z,19.806458013871815
2023-05-08T11:21:20.189Z,19.806458013871815
2023-05-08T11:24:15.993Z,19.839217590288264
2023-05-08T11:27:16.279Z,19.86876545367204
2023-05-08T11:31:16.218Z,19.863626694131472
2023-05-08T11:34:44.888Z,19.91501430263388
2023-05-08T11:37:18.938Z,19.985029966059663
2023-05-08T11:41:21.174Z,20.01072380105179
2023-05-08T11:44:19.656Z,20.028709489875475
2023-05-08T11:47:19.791Z,20.064680878218496
2023-05-08T11:51:17.517Z,20.0775278060828
2023-05-08T11:54:17.705Z,20.091017082298002
2023-05-08T11:57:17.528Z,20.098725241035662
2023-05-08T12:01:19.281Z,20.08138188479679
2023-05-08T12:04:17.031Z,20.09037473576609
2023-05-08T12:07:16.718Z,20.078812498969274
2023-05-08T12:11:22.844Z,20.08330892421518
2023-05-08T12:14:17.256Z,20.11221452040227
2023-05-08T12:17:16.985Z,20.098725241035662
2023-05-08T12:21:17.075Z,20.08395127069707
2023-05-08T12:24:17.577Z,20.1244191082239
2023-05-08T12:27:16.134Z,20.104506360518645
2023-05-08T12:31:16.313Z,20.119922680940725
2023-05-08T12:34:16.814Z,20.143047166485122
2023-05-08T12:37:23.516Z,20.149470635737817
2023-05-08T12:41:23.341Z,20.12827318892969
2023-05-08T12:44:18.629Z,20.130200229343973
2023-05-08T12:47:18.668Z,20.095513508148724
2023-05-08T12:51:16.734Z,20.107075747073758
2023-05-08T12:54:17.100Z,20.114141560475492
2023-05-08T12:57:18.520Z,20.13341196345873
2023-05-08T13:01:16.823Z,20.073673727532515
2023-05-08T13:11:27.913Z,20.019074298990837
2023-05-08T13:14:16.466Z,20.052476298432246
2023-05-08T13:17:17.204Z,20.047979874714294
2023-05-08T13:21:16.481Z,20.04284110502376
2023-05-08T13:24:16.712Z,20.04733752848706
2023-05-08T13:27:16.669Z,20.05697272237303
2023-05-08T13:31:16.655Z,20.05697272237303
2023-05-08T13:34:16.842Z,20.06532322456851
2023-05-08T13:37:16.990Z,20.07945484541933
2023-05-08T13:41:16.214Z,20.036417643319872
2023-05-08T13:44:16.631Z,20.06275383919574
2023-05-08T13:47:16.709Z,20.058257414968466
2023-05-08T13:51:16.620Z,20.03770233562427
2023-05-08T13:54:16.991Z,20.038344681783293
2023-05-08T13:57:16.944Z,20.062111492863913
2023-05-08T14:01:25.844Z,20.049264567182398
2023-05-08T14:04:16.746Z,20.057615068668476
2023-05-08T14:07:18.684Z,20.06275383919574
2023-05-08T14:11:16.600Z,20.082666577737836
2023-05-08T14:14:16.887Z,20.057615068668476
2023-05-08T14:17:16.884Z,20.044768143623607
2023-05-08T14:21:16.136Z,20.028709489875475
2023-05-08T14:24:16.553Z,20.051833952173183
2023-05-08T14:27:16.580Z,20.03898702794686
2023-05-08T14:31:16.857Z,20.034490604897382
2023-05-08T14:34:16.827Z,20.028067143784664
2023-05-08T14:37:17.805Z,20.030636528175183
2023-05-08T14:41:16.349Z,19.99787688264623
2023-05-08T14:44:16.823Z,20.006227379402937
2023-05-08T14:47:16.965Z,20.00815441722516
2023-05-08T14:51:16.467Z,19.999803920291107
2023-05-08T14:54:16.714Z,19.980533545684104
2023-05-08T14:57:16.683Z,19.979248854189155
2023-05-08T15:01:16.269Z,19.957409101558095
2023-05-08T15:04:16.569Z,19.93043059085985
2023-05-08T15:07:16.373Z,19.93556935418392
2023-05-08T15:11:16.452Z,19.94263515422972
2023-05-08T15:14:16.258Z,19.944562190701344
2023-05-08T15:17:16.253Z,19.955482064813623
2023-05-08T15:21:16.248Z,19.961905520787695
2023-05-08T15:24:16.722Z,19.954197373673377
2023-05-08T15:27:16.673Z,19.959978483947726
2023-05-08T15:31:16.627Z,19.972183051292085
2023-05-08T15:34:16.714Z,19.98759934923146
2023-05-08T15:37:16.931Z,19.96704428589437
2023-05-08T15:41:15.817Z,19.968971322884407
2023-05-08T15:44:18.304Z,19.963832557668592
2023-05-08T15:47:16.193Z,19.96704428589437
2023-05-08T15:51:16.794Z,19.959336138343495
2023-05-08T15:54:17.242Z,19.954839719241228
2023-05-08T15:57:17.373Z,19.925291827826822
2023-05-08T16:01:16.385Z,19.927861209306958
2023-05-08T16:04:16.858Z,19.912444921517544
2023-05-08T16:07:16.698Z,19.91822602913162
2023-05-08T16:11:16.311Z,19.890605184966354
2023-05-08T16:14:17.251Z,19.880327663702428
2023-05-08T16:17:16.580Z,19.901525052584837
2023-05-08T16:21:16.413Z,19.895743946034873
2023-05-08T16:24:16.858Z,19.90345208818335
2023-05-08T16:27:16.785Z,19.915656647924333
2023-05-08T16:31:17.318Z,19.901525052584837
2023-05-08T16:34:16.800Z,19.91051788572804
2023-05-08T16:37:16.874Z,19.91180257624983
2023-05-08T16:41:16.684Z,19.877758283568348
2023-05-08T16:44:16.890Z,19.895743946034873
2023-05-08T16:47:16.983Z,19.850779796553343
2023-05-08T16:51:15.755Z,19.805815669354434
2023-05-08T16:54:16.124Z,19.782048925408162
2023-05-08T16:57:16.232Z,19.717814513460326
2023-05-08T17:01:16.003Z,19.685054980876977
2023-05-08T17:04:16.598Z,19.64009093580544
2023-05-08T17:07:17.044Z,19.60861611751352
2023-05-08T17:11:16.330Z,19.546951199040997
2023-05-08T17:14:16.844Z,19.537316059315437
2023-05-08T17:17:17.637Z,19.523184522902103
2023-05-08T17:21:16.202Z,19.472439478469095
2023-05-08T17:24:16.731Z,19.457665610107597
2023-05-08T17:27:16.589Z,19.43197193173046
2023-05-08T17:31:20.661Z,19.38636567053036
2023-05-08T17:34:18.241Z,19.37416118198462
2023-05-08T17:37:19.345Z,19.324058561999937
2023-05-08T17:41:16.383Z,19.273955969682085
2023-05-08T17:44:19.517Z,19.2277074474835
2023-05-08T17:47:19.248Z,19.20137149398797
2023-05-08T17:51:19.021Z,19.15126896941838
2023-05-08T17:54:16.627Z,19.14291855134661
2023-05-08T17:57:16.627Z,19.083823306956855
2023-05-08T18:01:16.126Z,19.065195466160368
2023-05-08T18:04:16.467Z,19.030509152109516
2023-05-08T18:07:16.525Z,19.016377694631228
2023-05-08T18:11:17.788Z,18.961136563789115
2023-05-08T18:14:16.618Z,18.930304319339122
2023-05-08T18:17:19.471Z,18.88726766231348
2023-05-08T18:21:16.488Z,18.832668947702405
2023-05-08T18:24:16.893Z,18.813398820978183
2023-05-08T18:27:16.812Z,18.78642065044005
2023-05-08T18:31:16.869Z,18.74723808370627
2023-05-08T18:34:16.155Z,18.713194227986968
2023-05-08T18:37:16.413Z,18.68428907749776
2023-05-08T18:41:16.255Z,18.645748891170022
2023-05-08T18:44:17.059Z,18.624551795667866
2023-05-08T18:47:16.750Z,18.596289009368412
2023-05-08T18:51:16.273Z,18.56096053887459
2023-05-08T18:54:16.938Z,18.52498974668715
2023-05-08T18:57:17.108Z,18.499938667695098
2023-05-08T19:01:20.141Z,18.455617544883808
2023-05-08T19:04:16.552Z,18.435705163422973
2023-05-08T19:07:16.625Z,18.435705163422973
2023-05-08T19:11:16.258Z,18.402303759173083
2023-05-08T19:14:16.742Z,18.377252714055157
2023-05-08T19:17:16.781Z,18.357982684055695
2023-05-08T19:21:15.804Z,18.32458130841851
2023-05-08T19:24:19.846Z,18.293106946474655
2023-05-08T19:27:16.158Z,18.284114273638988
2023-05-08T19:31:16.116Z,18.26869826513721
2023-05-08T19:34:16.919Z,18.24493192382879
2023-05-08T19:37:16.608Z,18.22951592198451
2023-05-08T19:41:17.423Z,18.202537925059822
2023-05-08T19:44:16.420Z,18.183267932167745
2023-05-08T19:47:16.530Z,18.169136606648046
2023-05-08T19:51:17.051Z,18.143443293160182
2023-05-08T19:54:16.711Z,18.129311973843233
2023-05-08T19:57:16.596Z,18.133808302478066
2023-05-08T20:01:16.977Z,18.148581955275677
2023-05-08T20:04:17.275Z,18.12738497592509
2023-05-08T20:07:17.319Z,18.088202693799484
2023-05-08T20:11:16.036Z,18.05480141747912
2023-05-08T20:14:16.602Z,18.07021738963749
2023-05-08T20:17:16.416Z,18.06700572855516
2023-05-08T20:21:17.437Z,18.016261498542825
2023-05-08T20:24:18.136Z,18.02332714912227
2023-05-08T20:27:17.005Z,18.005341857820532
2023-05-08T20:31:17.152Z,17.98542957518084
2023-05-08T20:34:20.464Z,17.95845165083383
2023-05-08T20:37:17.279Z,17.97194061200462
2023-05-08T20:41:18.370Z,17.968728954401104
2023-05-08T20:44:20.603Z,17.96037864516402
2023-05-08T20:47:17.509Z,17.938539378485075
2023-05-08T20:51:17.131Z,17.913488461414907
2023-05-08T20:54:17.131Z,17.897430184879703
2023-05-08T20:57:18.822Z,17.89614552287967
2023-05-08T21:01:17.939Z,17.867240632687846
2023-05-08T21:04:16.537Z,17.85054003366322
2023-05-08T21:07:16.394Z,17.865313640335806
2023-05-08T21:11:16.958Z,17.831912446070056
2023-05-08T21:14:16.505Z,17.826773801889793
2023-05-08T21:17:16.487Z,17.82035049707374
2023-05-08T21:21:17.755Z,17.799153594407198
2023-05-08T21:24:16.968Z,17.804934567370584
2023-05-08T21:27:16.870Z,17.78951864028677
2023-05-08T21:31:16.257Z,17.761898444145572
2023-05-08T21:34:16.774Z,17.777956696692854
2023-05-08T21:37:16.620Z,17.758686793977176
2023-05-08T21:41:16.473Z,17.751621164006885
2023-05-08T21:44:16.908Z,17.729139617762122
2023-05-08T21:47:16.926Z,17.73748990571703
2023-05-08T21:51:16.540Z,17.69702313279013
2023-05-08T21:54:16.967Z,17.71757768186253
2023-05-08T21:57:17.027Z,17.682249553520613
2023-05-08T22:01:17.045Z,17.640498146851677
2023-05-08T22:04:16.952Z,17.648206097406
2023-05-08T22:07:16.930Z,17.607739364301324
2023-05-08T22:11:16.307Z,17.61608964108309
2023-05-08T22:14:16.841Z,17.598746759395816
2023-05-08T22:17:16.533Z,17.597462101624934
2023-05-08T22:21:16.114Z,17.60067374608625
2023-05-08T22:24:16.913Z,17.565987991920338
2023-05-08T22:27:16.791Z,17.55571073397332
2023-05-08T22:31:16.759Z,17.530659922604627
2023-05-08T22:34:17.041Z,17.54350649167327
2023-05-08T22:37:17.169Z,17.525521295486488
2023-05-08T22:41:16.264Z,17.506251446385523
2023-05-08T22:44:16.637Z,17.518455683674254
2023-05-08T22:47:16.762Z,17.519098011998086
2023-05-08T22:51:16.464Z,17.486339273280826
2023-05-08T22:54:16.568Z,17.481200648672893
2023-05-08T22:57:16.438Z,17.481200648672893
2023-05-08T23:01:17.570Z,17.439449334522305
2023-05-08T23:04:16.269Z,17.429172090908924
2023-05-08T23:07:16.475Z,17.449084251467138
2023-05-08T23:11:16.877Z,17.418894848459693
2023-05-08T23:14:17.286Z,17.421464158962863
2023-05-08T23:17:17.147Z,17.397055712120437
2023-05-08T23:21:16.548Z,17.38485149116168
2023-05-08T23:24:16.598Z,17.38870545549762
2023-05-08T23:31:16.566Z,17.351450473774456
2023-05-08T23:34:16.548Z,17.35337745521256
2023-05-08T23:37:16.685Z,17.331538334643938
2023-05-08T23:41:16.458Z,17.31355318047581
2023-05-08T23:44:17.163Z,17.294925703131593
2023-05-08T23:47:19.087Z,17.284648475889117
2023-05-08T23:51:16.558Z,17.275655903006918
2023-05-08T23:54:17.572Z,17.270517290331554
2023-05-08T23:57:17.109Z,17.252532148259707
